Time,TemperatureF,DewpointF,PressureIn,WindDirection,WindDirectionDegrees,WindSpeedMPH,WindSpeedGustMPH,Humidity,HourlyPrecipIn,Conditions,Clouds,dailyrainin,SoftwareType,DateUTC
2013-04-21 00:07:00,33.1,27.9,30.24,WNW,288,0.0,0.0,81,0.00,,,0.00,Wunderground v.1.15,2013-04-21 04:07:00,
2013-04-21 00:17:00,32.8,27.9,30.24,WNW,288,0.0,0.0,82,0.00,,,0.00,Wunderground v.1.15,2013-04-21 04:17:00,
2013-04-21 00:27:00,32.5,27.9,30.24,WNW,288,0.0,0.0,83,0.00,,,0.00,Wunderground v.1.15,2013-04-21 04:27:00,
2013-04-21 00:37:00,32.2,27.6,30.24,WNW,288,0.0,0.0,83,0.00,,,0.00,Wunderground v.1.15,2013-04-21 04:37:00,
2013-04-21 00:47:00,31.9,27.6,30.24,WNW,288,0.0,0.0,84,0.00,,,0.00,Wunderground v.1.15,2013-04-21 04:47:00,
2013-04-21 00:57:00,31.8,27.5,30.24,WNW,288,0.0,0.0,84,0.00,,,0.00,Wunderground v.1.15,2013-04-21 04:57:00,
2013-04-21 01:07:00,31.3,27.0,30.24,WNW,288,0.0,0.0,84,0.00,,,0.00,Wunderground v.1.15,2013-04-21 05:07:00,
2013-04-21 01:17:00,31.0,26.7,30.25,WNW,288,0.0,0.0,84,0.00,,,0.00,Wunderground v.1.15,2013-04-21 05:17:00,
2013-04-21 01:27:00,30.9,27.2,30.25,WNW,288,0.0,0.0,86,0.00,,,0.00,Wunderground v.1.15,2013-04-21 05:27:00,
2013-04-21 01:37:00,30.7,27.0,30.25,WNW,288,0.0,0.0,86,0.00,,,0.00,Wunderground v.1.15,2013-04-21 05:37:00,
2013-04-21 01:47:00,30.3,26.6,30.24,WNW,288,0.0,0.0,86,0.00,,,0.00,Wunderground v.1.15,2013-04-21 05:47:00,
2013-04-21 01:57:00,30.1,26.7,30.24,WNW,288,0.0,0.0,87,0.00,,,0.00,Wunderground v.1.15,2013-04-21 05:57:00,
2013-04-21 02:07:00,29.8,26.4,30.25,WNW,288,0.0,0.0,87,0.00,,,0.00,Wunderground v.1.15,2013-04-21 06:07:00,
2013-04-21 02:17:00,29.5,26.1,30.24,WNW,288,0.0,0.0,87,0.00,,,0.00,Wunderground v.1.15,2013-04-21 06:17:00,
2013-04-21 02:27:00,29.5,26.4,30.24,WNW,288,0.0,0.0,88,0.00,,,0.00,Wunderground v.1.15,2013-04-21 06:27:00,
2013-04-21 02:37:00,29.4,26.0,30.24,WNW,288,0.0,0.0,87,0.00,,,0.00,Wunderground v.1.15,2013-04-21 06:37:00,
2013-04-21 02:47:00,29.3,26.2,30.24,WNW,288,0.0,0.0,88,0.00,,,0.00,Wunderground v.1.15,2013-04-21 06:47:00,
2013-04-21 02:57:00,29.1,26.0,30.24,WNW,288,0.0,0.0,88,0.00,,,0.00,Wunderground v.1.15,2013-04-21 06:57:00,
2013-04-21 03:07:00,29.3,26.2,30.24,WNW,288,0.0,0.0,88,0.00,,,0.00,Wunderground v.1.15,2013-04-21 07:07:00,
2013-04-21 03:17:00,29.3,26.5,30.24,WNW,288,0.0,0.0,89,0.00,,,0.00,Wunderground v.1.15,2013-04-21 07:17:00,
2013-04-21 03:27:00,29.0,25.9,30.24,WNW,288,0.0,0.0,88,0.00,,,0.00,Wunderground v.1.15,2013-04-21 07:27:00,
2013-04-21 03:37:00,28.8,25.7,30.25,WNW,288,0.0,0.0,88,0.00,,,0.00,Wunderground v.1.15,2013-04-21 07:37:00,
2013-04-21 03:47:00,28.5,25.7,30.25,WNW,288,0.0,0.0,89,0.00,,,0.00,Wunderground v.1.15,2013-04-21 07:47:00,
2013-04-21 03:57:00,28.5,25.7,30.25,WNW,288,0.0,0.0,89,0.00,,,0.00,Wunderground v.1.15,2013-04-21 07:57:00,
2013-04-21 04:07:00,28.5,25.7,30.25,WNW,288,0.0,0.0,89,0.00,,,0.00,Wunderground v.1.15,2013-04-21 08:07:00,
2013-04-21 04:17:00,28.5,25.7,30.25,WNW,288,0.0,0.0,89,0.00,,,0.00,Wunderground v.1.15,2013-04-21 08:17:00,
2013-04-21 04:27:00,28.7,25.9,30.25,WNW,288,0.0,0.0,89,0.00,,,0.00,Wunderground v.1.15,2013-04-21 08:27:00,
2013-04-21 04:37:00,28.5,25.7,30.26,WNW,288,0.0,0.0,89,0.00,,,0.00,Wunderground v.1.15,2013-04-21 08:37:00,
2013-04-21 04:47:00,28.4,25.6,30.27,WNW,288,0.0,0.0,89,0.00,,,0.00,Wunderground v.1.15,2013-04-21 08:47:00,
2013-04-21 04:57:00,28.4,25.6,30.27,WNW,288,0.0,0.0,89,0.00,,,0.00,Wunderground v.1.15,2013-04-21 08:57:00,
2013-04-21 05:07:00,28.5,25.9,30.27,WNW,288,0.0,0.0,90,0.00,,,0.00,Wunderground v.1.15,2013-04-21 09:07:00,
2013-04-21 05:17:00,28.4,25.8,30.26,WNW,288,0.0,0.0,90,0.00,,,0.00,Wunderground v.1.15,2013-04-21 09:17:00,
2013-04-21 05:27:00,28.4,25.8,30.26,WNW,288,0.0,0.0,90,0.00,,,0.00,Wunderground v.1.15,2013-04-21 09:27:00,
2013-04-21 05:37:00,28.4,25.8,30.27,WNW,288,0.0,0.0,90,0.00,,,0.00,Wunderground v.1.15,2013-04-21 09:37:00,
2013-04-21 05:47:00,28.5,25.9,30.29,WNW,288,0.0,0.0,90,0.00,,,0.00,Wunderground v.1.15,2013-04-21 09:47:00,
2013-04-21 05:57:00,28.7,26.1,30.29,WNW,288,0.0,0.0,90,0.00,,,0.00,Wunderground v.1.15,2013-04-21 09:57:00,
2013-04-21 06:07:00,28.5,25.9,30.28,WNW,288,0.0,0.0,90,0.00,,,0.00,Wunderground v.1.15,2013-04-21 10:07:00,
2013-04-21 06:17:00,28.5,25.9,30.29,WNW,288,0.0,0.0,90,0.00,,,0.00,Wunderground v.1.15,2013-04-21 10:17:00,
2013-04-21 06:27:00,28.5,25.9,30.29,WNW,288,0.0,0.0,90,0.00,,,0.00,Wunderground v.1.15,2013-04-21 10:27:00,
2013-04-21 06:37:00,28.4,25.8,30.30,WNW,288,0.0,0.0,90,0.00,,,0.00,Wunderground v.1.15,2013-04-21 10:37:00,
2013-04-21 06:47:00,28.1,25.5,30.33,WNW,288,0.0,0.0,90,0.00,,,0.00,Wunderground v.1.15,2013-04-21 10:47:00,
2013-04-21 06:57:00,28.1,25.5,30.33,WNW,288,0.0,0.0,90,0.00,,,0.00,Wunderground v.1.15,2013-04-21 10:57:00,
2013-04-21 07:07:00,28.5,25.9,30.34,NE,49,0.0,0.0,90,0.00,,,0.00,Wunderground v.1.15,2013-04-21 11:07:00,
2013-04-21 07:17:00,29.4,26.8,30.34,ENE,73,0.0,0.0,90,0.00,,,0.00,Wunderground v.1.15,2013-04-21 11:17:00,
2013-04-21 07:27:00,29.7,26.9,30.34,ENE,73,0.0,0.0,89,0.00,,,0.00,Wunderground v.1.15,2013-04-21 11:27:00,
2013-04-21 07:37:00,29.8,27.0,30.34,ENE,73,0.0,0.0,89,0.00,,,0.00,Wunderground v.1.15,2013-04-21 11:37:00,
2013-04-21 07:47:00,30.0,27.2,30.37,ENE,73,0.0,0.0,89,0.00,,,0.00,Wunderground v.1.15,2013-04-21 11:47:00,
2013-04-21 07:57:00,30.1,27.3,30.37,ENE,73,0.0,0.0,89,0.00,,,0.00,Wunderground v.1.15,2013-04-21 11:57:00,
2013-04-21 08:07:00,31.2,28.6,30.38,ENE,73,0.0,0.0,90,0.00,,,0.00,Wunderground v.1.15,2013-04-21 12:07:00,
2013-04-21 08:17:00,32.5,29.6,30.37,ESE,110,0.0,0.0,89,0.00,,,0.00,Wunderground v.1.15,2013-04-21 12:17:00,
2013-04-21 08:27:00,34.0,29.7,30.37,ESE,110,0.0,0.0,84,0.00,,,0.00,Wunderground v.1.15,2013-04-21 12:27:00,
2013-04-21 08:37:00,35.6,31.2,30.38,ESE,114,0.0,0.0,84,0.00,,,0.00,Wunderground v.1.15,2013-04-21 12:37:00,
2013-04-21 08:47:00,38.3,28.3,30.38,South,169,0.0,0.0,67,0.00,,,0.00,Wunderground v.1.15,2013-04-21 12:47:00,
2013-04-21 08:57:00,39.6,29.5,30.38,South,178,0.0,2.0,67,0.00,,,0.00,Wunderground v.1.15,2013-04-21 12:57:00,
2013-04-21 09:07:00,41.3,28.0,30.38,SSE,158,1.0,3.0,59,0.00,,,0.00,Wunderground v.1.15,2013-04-21 13:07:00,
2013-04-21 09:17:00,42.9,24.0,30.37,SSE,161,1.0,1.0,47,0.00,,,0.00,Wunderground v.1.15,2013-04-21 13:17:00,
2013-04-21 09:27:00,43.8,22.7,30.37,SSE,151,2.0,2.0,43,0.00,,,0.00,Wunderground v.1.15,2013-04-21 13:27:00,
2013-04-21 09:37:00,44.3,23.2,30.38,SSW,195,1.0,3.0,43,0.00,,,0.00,Wunderground v.1.15,2013-04-21 13:37:00,
2013-04-21 09:47:00,44.8,21.9,30.38,East,86,3.0,3.0,40,0.00,,,0.00,Wunderground v.1.15,2013-04-21 13:47:00,
2013-04-21 09:57:00,45.1,23.9,30.38,SSE,155,2.0,2.0,43,0.00,,,0.00,Wunderground v.1.15,2013-04-21 13:57:00,
2013-04-21 10:07:00,45.7,23.9,30.38,South,191,1.0,3.0,42,0.00,,,0.00,Wunderground v.1.15,2013-04-21 14:07:00,
2013-04-21 10:17:00,46.4,22.8,30.39,SE,137,2.0,2.0,39,0.00,,,0.00,Wunderground v.1.15,2013-04-21 14:17:00,
2013-04-21 10:27:00,46.5,21.6,30.39,East,80,2.0,2.0,37,0.00,,,0.00,Wunderground v.1.15,2013-04-21 14:27:00,
2013-04-21 10:37:00,47.0,23.3,30.39,West,271,2.0,2.0,39,0.00,,,0.00,Wunderground v.1.15,2013-04-21 14:37:00,
2013-04-21 10:47:00,47.3,25.3,30.40,SE,127,2.0,2.0,42,0.00,,,0.00,Wunderground v.1.15,2013-04-21 14:47:00,
2013-04-21 10:57:00,48.0,21.6,30.40,East,89,2.0,2.0,35,0.00,,,0.00,Wunderground v.1.15,2013-04-21 14:57:00,
2013-04-21 11:07:00,48.9,23.7,30.39,SSE,167,2.0,2.0,37,0.00,,,0.00,Wunderground v.1.15,2013-04-21 15:07:00,
2013-04-21 11:17:00,50.1,22.8,30.38,SE,138,1.0,3.0,34,0.00,,,0.00,Wunderground v.1.15,2013-04-21 15:17:00,
2013-04-21 11:27:00,49.9,21.9,30.38,ENE,61,2.0,7.0,33,0.00,,,0.00,Wunderground v.1.15,2013-04-21 15:27:00,
2013-04-21 11:37:00,50.1,23.5,30.37,East,92,2.0,2.0,35,0.00,,,0.00,Wunderground v.1.15,2013-04-21 15:37:00,
2013-04-21 11:47:00,50.4,21.6,30.38,ESE,110,3.0,3.0,32,0.00,,,0.00,Wunderground v.1.15,2013-04-21 15:47:00,
2013-04-21 11:57:00,52.0,23.0,30.38,ESE,104,1.0,1.0,32,0.00,,,0.00,Wunderground v.1.15,2013-04-21 15:57:00,
2013-04-21 12:07:00,52.3,24.0,30.36,SE,145,2.0,3.0,33,0.00,,,0.00,Wunderground v.1.15,2013-04-21 16:07:00,
2013-04-21 12:17:00,51.7,23.5,30.36,South,169,2.0,2.0,33,0.00,,,0.00,Wunderground v.1.15,2013-04-21 16:17:00,
2013-04-21 12:27:00,51.6,23.4,30.36,SE,143,3.0,3.0,33,0.00,,,0.00,Wunderground v.1.15,2013-04-21 16:27:00,
2013-04-21 12:37:00,52.2,24.6,30.36,East,85,2.0,2.0,34,0.00,,,0.00,Wunderground v.1.15,2013-04-21 16:37:00,
2013-04-21 12:47:00,53.2,27.6,30.34,West,278,2.0,2.0,37,0.00,,,0.00,Wunderground v.1.15,2013-04-21 16:47:00,
2013-04-21 12:57:00,53.6,24.4,30.34,SSE,158,2.0,2.0,32,0.00,,,0.00,Wunderground v.1.15,2013-04-21 16:57:00,
2013-04-21 13:07:00,56.3,26.8,30.33,East,90,1.0,7.0,32,0.00,,,0.00,Wunderground v.1.15,2013-04-21 17:07:00,
2013-04-21 13:17:00,55.4,26.0,30.32,NW,318,3.0,3.0,32,0.00,,,0.00,Wunderground v.1.15,2013-04-21 17:17:00,
2013-04-21 13:27:00,55.1,25.7,30.32,East,82,2.0,6.0,32,0.00,,,0.00,Wunderground v.1.15,2013-04-21 17:27:00,
2013-04-21 13:37:00,55.7,27.7,30.32,ENE,73,2.0,2.0,34,0.00,,,0.00,Wunderground v.1.15,2013-04-21 17:37:00,
2013-04-21 13:47:00,55.4,25.2,30.31,SW,233,4.0,4.0,31,0.00,,,0.00,Wunderground v.1.15,2013-04-21 17:47:00,
2013-04-21 13:57:00,55.9,26.4,30.31,East,88,3.0,6.0,32,0.00,,,0.00,Wunderground v.1.15,2013-04-21 17:57:00,
2013-04-21 14:07:00,54.5,24.4,30.32,East,99,5.0,7.0,31,0.00,,,0.00,Wunderground v.1.15,2013-04-21 18:07:00,
2013-04-21 14:17:00,54.8,23.1,30.32,ENE,61,4.0,4.0,29,0.00,,,0.00,Wunderground v.1.15,2013-04-21 18:17:00,
2013-04-21 14:27:00,55.4,28.2,30.32,NW,313,3.0,3.0,35,0.00,,,0.00,Wunderground v.1.15,2013-04-21 18:27:00,
2013-04-21 14:37:00,58.0,24.2,30.31,East,82,1.0,3.0,27,0.00,,,0.00,Wunderground v.1.15,2013-04-21 18:37:00,
2013-04-21 14:47:00,56.5,26.2,30.32,ENE,65,3.0,3.0,31,0.00,,,0.00,Wunderground v.1.15,2013-04-21 18:47:00,
2013-04-21 14:57:00,56.3,26.0,30.32,East,93,4.0,4.0,31,0.00,,,0.00,Wunderground v.1.15,2013-04-21 18:57:00,
2013-04-21 15:07:00,56.5,26.2,30.31,SSW,208,3.0,3.0,31,0.00,,,0.00,Wunderground v.1.15,2013-04-21 19:07:00,
2013-04-21 15:17:00,55.1,26.5,30.31,NE,42,4.0,4.0,33,0.00,,,0.00,Wunderground v.1.15,2013-04-21 19:17:00,
2013-04-21 15:37:00,55.4,26.7,30.31,East,89,4.0,5.0,33,0.00,,,0.00,Wunderground v.1.15,2013-04-21 19:37:00,
2013-04-21 15:47:00,55.4,26.0,30.31,ENE,78,5.0,6.0,32,0.00,,,0.00,Wunderground v.1.15,2013-04-21 19:47:00,
2013-04-21 15:57:00,56.5,26.2,30.31,ESE,110,3.0,3.0,31,0.00,,,0.00,Wunderground v.1.15,2013-04-21 19:57:00,
2013-04-21 16:07:00,55.3,25.9,30.30,ENE,59,4.0,10.0,32,0.00,,,0.00,Wunderground v.1.15,2013-04-21 20:07:00,
2013-04-21 16:17:00,54.7,26.8,30.30,ENE,68,4.0,4.0,34,0.00,,,0.00,Wunderground v.1.15,2013-04-21 20:17:00,
2013-04-21 16:27:00,55.9,29.3,30.30,East,89,3.0,5.0,36,0.00,,,0.00,Wunderground v.1.15,2013-04-21 20:27:00,
2013-04-21 16:37:00,56.6,27.8,30.29,ENE,59,2.0,2.0,33,0.00,,,0.00,Wunderground v.1.15,2013-04-21 20:37:00,
2013-04-21 16:47:00,55.1,29.3,30.29,ESE,119,4.0,6.0,37,0.00,,,0.00,Wunderground v.1.15,2013-04-21 20:47:00,
2013-04-21 16:57:00,55.0,27.8,30.29,East,97,3.0,3.0,35,0.00,,,0.00,Wunderground v.1.15,2013-04-21 20:57:00,
2013-04-21 17:07:00,55.0,29.2,30.29,NE,45,3.0,3.0,37,0.00,,,0.00,Wunderground v.1.15,2013-04-21 21:07:00,
2013-04-21 17:17:00,55.3,28.8,30.29,SE,145,2.0,2.0,36,0.00,,,0.00,Wunderground v.1.15,2013-04-21 21:17:00,
2013-04-21 17:27:00,55.3,28.8,30.29,NE,48,2.0,2.0,36,0.00,,,0.00,Wunderground v.1.15,2013-04-21 21:27:00,
2013-04-21 17:37:00,55.1,28.6,30.29,SE,134,4.0,4.0,36,0.00,,,0.00,Wunderground v.1.15,2013-04-21 21:37:00,
2013-04-21 17:47:00,54.8,29.7,30.28,East,97,4.0,4.0,38,0.00,,,0.00,Wunderground v.1.15,2013-04-21 21:47:00,
2013-04-21 17:57:00,54.8,29.7,30.28,SE,141,2.0,3.0,38,0.00,,,0.00,Wunderground v.1.15,2013-04-21 21:57:00,
2013-04-21 18:07:00,54.5,30.0,30.29,East,95,2.0,2.0,39,0.00,,,0.00,Wunderground v.1.15,2013-04-21 22:07:00,
2013-04-21 18:17:00,54.2,30.4,30.30,East,95,2.0,2.0,40,0.00,,,0.00,Wunderground v.1.15,2013-04-21 22:17:00,
2013-04-21 18:27:00,53.2,28.9,30.30,ENE,72,4.0,5.0,39,0.00,,,0.00,Wunderground v.1.15,2013-04-21 22:27:00,
2013-04-21 18:37:00,52.6,28.9,30.30,SSE,161,3.0,4.0,40,0.00,,,0.00,Wunderground v.1.15,2013-04-21 22:37:00,
2013-04-21 18:47:00,52.9,28.6,30.30,ESE,116,3.0,3.0,39,0.00,,,0.00,Wunderground v.1.15,2013-04-21 22:47:00,
2013-04-21 18:57:00,52.8,29.7,30.30,NE,55,3.0,3.0,41,0.00,,,0.00,Wunderground v.1.15,2013-04-21 22:57:00,
2013-04-21 19:07:00,52.9,29.2,30.30,SE,133,2.0,5.0,40,0.00,,,0.00,Wunderground v.1.15,2013-04-21 23:07:00,
2013-04-21 19:17:00,52.5,29.5,30.30,ENE,58,3.0,3.0,41,0.00,,,0.00,Wunderground v.1.15,2013-04-21 23:17:00,
2013-04-21 19:27:00,51.6,29.8,30.30,ESE,107,2.0,2.0,43,0.00,,,0.00,Wunderground v.1.15,2013-04-21 23:27:00,
2013-04-21 19:37:00,51.0,30.4,30.31,South,169,1.0,1.0,45,0.00,,,0.00,Wunderground v.1.15,2013-04-21 23:37:00,
2013-04-21 19:47:00,50.5,31.0,30.31,SSE,161,1.0,2.0,47,0.00,,,0.00,Wunderground v.1.15,2013-04-21 23:47:00,
2013-04-21 19:57:00,49.9,31.5,30.31,ESE,123,1.0,1.0,49,0.00,,,0.00,Wunderground v.1.15,2013-04-21 23:57:00,
2013-04-21 20:07:00,49.5,31.1,30.31,ESE,112,1.0,1.0,49,0.00,,,0.00,Wunderground v.1.15,2013-04-22 00:07:00,
2013-04-21 20:17:00,49.1,31.7,30.32,SE,141,1.0,1.0,51,0.00,,,0.00,Wunderground v.1.15,2013-04-22 00:17:00,
2013-04-21 20:27:00,49.1,31.2,30.32,East,95,2.0,2.0,50,0.00,,,0.00,Wunderground v.1.15,2013-04-22 00:27:00,
2013-04-21 20:37:00,48.8,31.5,30.33,SE,141,2.0,2.0,51,0.00,,,0.00,Wunderground v.1.15,2013-04-22 00:37:00,
2013-04-21 20:47:00,48.5,32.1,30.31,SE,133,1.0,2.0,53,0.00,,,0.00,Wunderground v.1.15,2013-04-22 00:47:00,
2013-04-21 20:57:00,48.3,31.9,30.31,ENE,61,1.0,2.0,53,0.00,,,0.00,Wunderground v.1.15,2013-04-22 00:57:00,
2013-04-21 21:07:00,48.2,31.9,30.31,SE,133,2.0,3.0,53,0.00,,,0.00,Wunderground v.1.15,2013-04-22 01:07:00,
2013-04-21 21:17:00,47.7,31.9,30.32,SE,140,1.0,1.0,54,0.00,,,0.00,Wunderground v.1.15,2013-04-22 01:17:00,
2013-04-21 21:27:00,47.6,31.8,30.32,South,178,1.0,1.0,54,0.00,,,0.00,Wunderground v.1.15,2013-04-22 01:27:00,
2013-04-21 21:37:00,47.1,31.7,30.32,SE,138,0.0,0.0,55,0.00,,,0.00,Wunderground v.1.15,2013-04-22 01:37:00,
2013-04-21 21:47:00,46.8,31.9,30.32,SE,138,0.0,0.0,56,0.00,,,0.00,Wunderground v.1.15,2013-04-22 01:47:00,
2013-04-21 21:57:00,46.4,31.5,30.32,SE,144,0.0,0.0,56,0.00,,,0.00,Wunderground v.1.15,2013-04-22 01:57:00,
2013-04-21 22:07:00,46.4,31.5,30.33,SE,145,0.0,0.0,56,0.00,,,0.00,Wunderground v.1.15,2013-04-22 02:07:00,
2013-04-21 22:17:00,46.5,32.1,30.34,SE,144,0.0,0.0,57,0.00,,,0.00,Wunderground v.1.15,2013-04-22 02:17:00,
2013-04-21 22:27:00,46.7,32.3,30.34,SE,145,0.0,0.0,57,0.00,,,0.00,Wunderground v.1.15,2013-04-22 02:27:00,
2013-04-21 22:37:00,46.8,32.8,30.33,SE,145,0.0,0.0,58,0.00,,,0.00,Wunderground v.1.15,2013-04-22 02:37:00,
2013-04-21 22:47:00,46.8,32.4,30.32,SE,144,0.0,0.0,57,0.00,,,0.00,Wunderground v.1.15,2013-04-22 02:47:00,
2013-04-21 22:57:00,46.7,32.7,30.32,SE,145,1.0,1.0,58,0.00,,,0.00,Wunderground v.1.15,2013-04-22 02:57:00,
2013-04-21 23:07:00,46.7,32.7,30.32,SE,145,0.0,0.0,58,0.00,,,0.00,Wunderground v.1.15,2013-04-22 03:07:00,
2013-04-21 23:17:00,46.5,32.5,30.32,SSE,168,1.0,1.0,58,0.00,,,0.00,Wunderground v.1.15,2013-04-22 03:17:00,
2013-04-21 23:27:00,46.4,32.4,30.32,SSE,168,0.0,0.0,58,0.00,,,0.00,Wunderground v.1.15,2013-04-22 03:27:00,
2013-04-21 23:37:00,46.1,33.0,30.31,South,169,0.0,0.0,60,0.00,,,0.00,Wunderground v.1.15,2013-04-22 03:37:00,
2013-04-21 23:47:00,46.0,32.5,30.31,SSE,168,0.0,0.0,59,0.00,,,0.00,Wunderground v.1.15,2013-04-22 03:47:00,
2013-04-21 23:57:00,45.4,32.7,30.31,South,169,0.0,0.0,61,0.00,,,0.00,Wunderground v.1.15,2013-04-22 03:57:00,